sensor_id;sensor_type;location;lat;lon;timestamp;pressure;altitude;pressure_sealevel;temperature;humidity
25430;BME280;13360;48.152;-1.788;2024-03-22T00:01:02;102678.97;;;15.55;100.00
25430;BME280;13360;48.152;-1.788;2024-03-22T00:03:27;102674.53;;;15.54;100.00
25430;BME280;13360;48.152;-1.788;2024-03-22T00:05:52;102678.41;;;15.58;100.00
25430;BME280;13360;48.152;-1.788;2024-03-22T00:08:17;102673.41;;;15.60;100.00
25430;BME280;13360;48.152;-1.788;2024-03-22T00:10:42;102668.69;;;15.61;100.00
25430;BME280;13360;48.152;-1.788;2024-03-22T00:13:08;102667.84;;;15.60;100.00
25430;BME280;13360;48.152;-1.788;2024-03-22T00:15:33;102669.78;;;15.60;100.00
25430;BME280;13360;48.152;-1.788;2024-03-22T00:17:58;102676.50;;;15.59;100.00
25430;BME280;13360;48.152;-1.788;2024-03-22T00:20:23;102665.34;;;15.59;100.00
25430;BME280;13360;48.152;-1.788;2024-03-22T00:22:49;102662.28;;;15.55;100.00
25430;BME280;13360;48.152;-1.788;2024-03-22T00:25:14;102653.69;;;15.46;100.00
25430;BME280;13360;48.152;-1.788;2024-03-22T00:27:39;102663.50;;;15.23;100.00
25430;BME280;13360;48.152;-1.788;2024-03-22T00:30:04;102690.75;;;15.27;100.00
25430;BME280;13360;48.152;-1.788;2024-03-22T00:32:30;102693.81;;;15.25;100.00
25430;BME280;13360;48.152;-1.788;2024-03-22T00:34:55;102712.44;;;15.35;100.00
25430;BME280;13360;48.152;-1.788;2024-03-22T00:37:20;102706.03;;;15.34;100.00
25430;BME280;13360;48.152;-1.788;2024-03-22T00:39:46;102701.03;;;15.31;100.00
25430;BME280;13360;48.152;-1.788;2024-03-22T00:42:11;102715.78;;;15.37;100.00
25430;BME280;13360;48.152;-1.788;2024-03-22T00:44:36;102708.56;;;15.31;100.00
25430;BME280;13360;48.152;-1.788;2024-03-22T00:47:01;102712.44;;;15.35;100.00
25430;BME280;13360;48.152;-1.788;2024-03-22T00:49:28;102715.81;;;15.27;100.00
25430;BME280;13360;48.152;-1.788;2024-03-22T00:51:53;102714.44;;;15.24;100.00
25430;BME280;13360;48.152;-1.788;2024-03-22T00:54:20;102721.66;;;15.25;100.00
25430;BME280;13360;48.152;-1.788;2024-03-22T00:56:45;102711.91;;;15.28;100.00
25430;BME280;13360;48.152;-1.788;2024-03-22T00:59:10;102720.25;;;15.28;100.00
25430;BME280;13360;48.152;-1.788;2024-03-22T01:01:35;102719.69;;;15.31;100.00
25430;BME280;13360;48.152;-1.788;2024-03-22T01:04:01;102710.78;;;15.34;100.00
25430;BME280;13360;48.152;-1.788;2024-03-22T01:06:26;102693.25;;;15.28;100.00
25430;BME280;13360;48.152;-1.788;2024-03-22T01:08:52;102708.03;;;15.23;100.00
25430;BME280;13360;48.152;-1.788;2024-03-22T01:11:18;102695.75;;;15.30;100.00
25430;BME280;13360;48.152;-1.788;2024-03-22T01:13:43;102686.00;;;15.32;100.00
25430;BME280;13360;48.152;-1.788;2024-03-22T01:16:08;102682.09;;;15.33;100.00
25430;BME280;13360;48.152;-1.788;2024-03-22T01:18:34;102681.00;;;15.34;100.00
25430;BME280;13360;48.152;-1.788;2024-03-22T01:21:00;102679.31;;;15.33;100.00
25430;BME280;13360;48.152;-1.788;2024-03-22T01:23:25;102680.16;;;15.34;100.00
25430;BME280;13360;48.152;-1.788;2024-03-22T01:25:50;102678.75;;;15.36;100.00
25430;BME280;13360;48.152;-1.788;2024-03-22T01:28:15;102667.91;;;15.35;100.00
25430;BME280;13360;48.152;-1.788;2024-03-22T01:30:42;102663.44;;;15.34;100.00
25430;BME280;13360;48.152;-1.788;2024-03-22T01:33:07;102665.13;;;15.35;100.00
25430;BME280;13360;48.152;-1.788;2024-03-22T01:35:32;102654.81;;;15.35;100.00
25430;BME280;13360;48.152;-1.788;2024-03-22T01:37:57;102646.75;;;15.34;100.00
25430;BME280;13360;48.152;-1.788;2024-03-22T01:40:22;102641.47;;;15.32;100.00
25430;BME280;13360;48.152;-1.788;2024-03-22T01:42:48;102639.25;;;15.29;100.00
25430;BME280;13360;48.152;-1.788;2024-03-22T01:45:13;102633.97;;;15.28;100.00
25430;BME280;13360;48.152;-1.788;2024-03-22T01:47:39;102635.91;;;15.27;100.00
25430;BME280;13360;48.152;-1.788;2024-03-22T01:50:05;102635.91;;;15.27;100.00
25430;BME280;13360;48.152;-1.788;2024-03-22T01:52:31;102631.75;;;15.24;100.00
25430;BME280;13360;48.152;-1.788;2024-03-22T01:54:56;102643.69;;;15.20;100.00
25430;BME280;13360;48.152;-1.788;2024-03-22T01:57:22;102655.13;;;15.23;100.00
25430;BME280;13360;48.152;-1.788;2024-03-22T01:59:47;102634.00;;;15.12;100.00
25430;BME280;13360;48.152;-1.788;2024-03-22T02:02:14;102632.88;;;15.08;100.00
25430;BME280;13360;48.152;-1.788;2024-03-22T02:04:39;102636.78;;;14.97;100.00
25430;BME280;13360;48.152;-1.788;2024-03-22T02:07:05;102655.44;;;15.07;100.00
25430;BME280;13360;48.152;-1.788;2024-03-22T02:09:30;102644.56;;;15.10;100.00
25430;BME280;13360;48.152;-1.788;2024-03-22T02:11:56;102640.09;;;15.14;100.00
25430;BME280;13360;48.152;-1.788;2024-03-22T02:14:21;102626.19;;;15.14;100.00
25430;BME280;13360;48.152;-1.788;2024-03-22T02:16:46;102622.28;;;15.15;100.00
25430;BME280;13360;48.152;-1.788;2024-03-22T02:19:11;102618.38;;;15.16;100.00
25430;BME280;13360;48.152;-1.788;2024-03-22T02:21:37;102612.00;;;15.16;100.00
25430;BME280;13360;48.152;-1.788;2024-03-22T02:24:02;102618.13;;;15.13;100.00
25430;BME280;13360;48.152;-1.788;2024-03-22T02:26:27;102624.53;;;15.13;100.00
25430;BME280;13360;48.152;-1.788;2024-03-22T02:28:52;102605.31;;;15.12;100.00
25430;BME280;13360;48.152;-1.788;2024-03-22T02:31:18;102607.84;;;15.08;100.00
25430;BME280;13360;48.152;-1.788;2024-03-22T02:33:45;102615.63;;;15.11;100.00
25430;BME280;13360;48.152;-1.788;2024-03-22T02:36:10;102619.53;;;15.10;100.00
25430;BME280;13360;48.152;-1.788;2024-03-22T02:38:35;102613.97;;;15.10;100.00
25430;BME280;13360;48.152;-1.788;2024-03-22T02:41:00;102618.13;;;15.13;100.00
25430;BME280;13360;48.152;-1.788;2024-03-22T02:43:26;102605.63;;;15.05;100.00
25430;BME280;13360;48.152;-1.788;2024-03-22T02:45:51;102611.19;;;15.05;100.00
25430;BME280;13360;48.152;-1.788;2024-03-22T02:48:16;102625.38;;;15.09;100.00
25430;BME280;13360;48.152;-1.788;2024-03-22T02:50:41;102606.19;;;15.02;100.00
25430;BME280;13360;48.152;-1.788;2024-03-22T02:53:06;102604.22;;;14.98;100.00
25430;BME280;13360;48.152;-1.788;2024-03-22T02:55:38;102617.03;;;14.99;100.00
25430;BME280;13360;48.152;-1.788;2024-03-22T02:58:04;102624.81;;;14.97;100.00
25430;BME280;13360;48.152;-1.788;2024-03-22T03:00:29;102632.06;;;14.98;100.00
25430;BME280;13360;48.152;-1.788;2024-03-22T03:02:54;102633.47;;;14.95;100.00
25430;BME280;13360;48.152;-1.788;2024-03-22T03:05:19;102637.63;;;14.92;100.00
25430;BME280;13360;48.152;-1.788;2024-03-22T03:07:45;102654.06;;;14.94;100.00
25430;BME280;13360;48.152;-1.788;2024-03-22T03:10:12;102644.31;;;14.97;100.00
25430;BME280;13360;48.152;-1.788;2024-03-22T03:12:37;102639.56;;;14.97;100.00
25430;BME280;13360;48.152;-1.788;2024-03-22T03:15:02;102633.19;;;14.91;100.00
25430;BME280;13360;48.152;-1.788;2024-03-22T03:17:28;102636.25;;;14.90;100.00
25430;BME280;13360;48.152;-1.788;2024-03-22T03:19:53;102620.69;;;14.84;100.00
25430;BME280;13360;48.152;-1.788;2024-03-22T03:22:18;102628.75;;;14.85;100.00
25430;BME280;13360;48.152;-1.788;2024-03-22T03:24:43;102626.53;;;14.87;100.00
25430;BME280;13360;48.152;-1.788;2024-03-22T03:27:08;102632.63;;;14.89;100.00
25430;BME280;13360;48.152;-1.788;2024-03-22T03:29:34;102623.47;;;14.89;100.00
25430;BME280;13360;48.152;-1.788;2024-03-22T03:31:59;102622.06;;;14.91;100.00
25430;BME280;13360;48.152;-1.788;2024-03-22T03:34:24;102608.69;;;14.93;100.00
25430;BME280;13360;48.152;-1.788;2024-03-22T03:36:49;102606.75;;;14.94;100.00
25430;BME280;13360;48.152;-1.788;2024-03-22T03:39:15;102597.31;;;14.90;100.00
25430;BME280;13360;48.152;-1.788;2024-03-22T03:41:40;102608.44;;;14.90;100.00
25430;BME280;13360;48.152;-1.788;2024-03-22T03:44:05;102599.53;;;14.88;100.00
25430;BME280;13360;48.152;-1.788;2024-03-22T03:46:30;102605.38;;;14.86;100.00
25430;BME280;13360;48.152;-1.788;2024-03-22T03:48:56;102609.84;;;14.87;100.00
25430;BME280;13360;48.152;-1.788;2024-03-22T03:51:21;102592.88;;;14.79;100.00
25430;BME280;13360;48.152;-1.788;2024-03-22T03:53:47;102596.75;;;14.78;100.00
25430;BME280;13360;48.152;-1.788;2024-03-22T03:56:12;102613.75;;;14.81;100.00
25430;BME280;13360;48.152;-1.788;2024-03-22T03:58:37;102604.56;;;14.81;100.00
25430;BME280;13360;48.152;-1.788;2024-03-22T04:01:09;102614.84;;;14.80;100.00
25430;BME280;13360;48.152;-1.788;2024-03-22T04:03:34;102586.78;;;14.67;100.00
25430;BME280;13360;48.152;-1.788;2024-03-22T04:05:59;102622.91;;;14.72;100.00
25430;BME280;13360;48.152;-1.788;2024-03-22T04:08:25;102643.50;;;14.76;100.00
25430;BME280;13360;48.152;-1.788;2024-03-22T04:10:54;102641.25;;;14.78;100.00
25430;BME280;13360;48.152;-1.788;2024-03-22T04:13:26;102626.81;;;14.76;100.00
25430;BME280;13360;48.152;-1.788;2024-03-22T04:15:51;102650.72;;;14.77;100.00
25430;BME280;13360;48.152;-1.788;2024-03-22T04:18:17;102628.47;;;14.72;100.00
25430;BME280;13360;48.152;-1.788;2024-03-22T04:20:42;102634.31;;;14.70;100.00
25430;BME280;13360;48.152;-1.788;2024-03-22T04:23:08;102626.81;;;14.71;100.00
25430;BME280;13360;48.152;-1.788;2024-03-22T04:25:34;102613.47;;;14.68;100.00
25430;BME280;13360;48.152;-1.788;2024-03-22T04:27:59;102612.34;;;14.69;100.00
25430;BME280;13360;48.152;-1.788;2024-03-22T04:30:24;102595.66;;;14.69;100.00
25430;BME280;13360;48.152;-1.788;2024-03-22T04:32:49;102600.94;;;14.70;100.00
25430;BME280;13360;48.152;-1.788;2024-03-22T04:35:14;102578.44;;;14.67;100.00
25430;BME280;13360;48.152;-1.788;2024-03-22T04:37:40;102575.66;;;14.67;100.00
25430;BME280;13360;48.152;-1.788;2024-03-22T04:40:05;102578.72;;;14.65;100.00
25430;BME280;13360;48.152;-1.788;2024-03-22T04:42:31;102591.22;;;14.68;100.00
25430;BME280;13360;48.152;-1.788;2024-03-22T04:44:56;102586.78;;;14.67;100.00
25430;BME280;13360;48.152;-1.788;2024-03-22T04:47:22;102575.66;;;14.67;100.00
25430;BME280;13360;48.152;-1.788;2024-03-22T04:49:49;102584.81;;;14.67;100.00
25430;BME280;13360;48.152;-1.788;2024-03-22T04:52:15;102569.53;;;14.64;100.00
25430;BME280;13360;48.152;-1.788;2024-03-22T04:54:40;102548.97;;;14.60;100.00
25430;BME280;13360;48.152;-1.788;2024-03-22T04:57:05;102546.19;;;14.60;100.00
25430;BME280;13360;48.152;-1.788;2024-03-22T04:59:30;102552.84;;;14.59;100.00
25430;BME280;13360;48.152;-1.788;2024-03-22T05:01:55;102551.19;;;14.58;100.00
25430;BME280;13360;48.152;-1.788;2024-03-22T05:04:21;102548.97;;;14.60;100.00
25430;BME280;13360;48.152;-1.788;2024-03-22T05:06:46;102540.63;;;14.60;100.00
25430;BME280;13360;48.152;-1.788;2024-03-22T05:09:11;102529.78;;;14.59;100.00
25430;BME280;13360;48.152;-1.788;2024-03-22T05:11:36;102527.00;;;14.59;100.00
25430;BME280;13360;48.152;-1.788;2024-03-22T05:14:02;102520.59;;;14.58;100.00
25430;BME280;13360;48.152;-1.788;2024-03-22T05:16:27;102502.81;;;14.59;100.00
25430;BME280;13360;48.152;-1.788;2024-03-22T05:18:53;102517.00;;;14.58;100.00
25430;BME280;13360;48.152;-1.788;2024-03-22T05:21:18;102509.19;;;14.60;100.00
25430;BME280;13360;48.152;-1.788;2024-03-22T05:23:43;102488.91;;;14.59;100.00
25430;BME280;13360;48.152;-1.788;2024-03-22T05:26:08;102476.66;;;14.55;100.00
25430;BME280;13360;48.152;-1.788;2024-03-22T05:28:34;102476.66;;;14.50;100.00
25430;BME280;13360;48.152;-1.788;2024-03-22T05:30:59;102480.28;;;14.51;100.00
25430;BME280;13360;48.152;-1.788;2024-03-22T05:33:24;102488.06;;;14.54;100.00
25430;BME280;13360;48.152;-1.788;2024-03-22T05:35:49;102484.16;;;14.55;100.00
25430;BME280;13360;48.152;-1.788;2024-03-22T05:38:14;102478.59;;;14.55;100.00
25430;BME280;13360;48.152;-1.788;2024-03-22T05:40:40;102476.94;;;14.54;100.00
25430;BME280;13360;48.152;-1.788;2024-03-22T05:43:05;102480.53;;;14.54;100.00
25430;BME280;13360;48.152;-1.788;2024-03-22T05:45:30;102478.31;;;14.56;100.00
25430;BME280;13360;48.152;-1.788;2024-03-22T05:47:55;102473.03;;;14.55;100.00
25430;BME280;13360;48.152;-1.788;2024-03-22T05:50:21;102466.09;;;14.52;100.00
25430;BME280;13360;48.152;-1.788;2024-03-22T05:52:46;102471.38;;;14.54;100.00
25430;BME280;13360;48.152;-1.788;2024-03-22T05:55:11;102478.59;;;14.55;100.00
25430;BME280;13360;48.152;-1.788;2024-03-22T05:57:36;102472.47;;;14.53;100.00
25430;BME280;13360;48.152;-1.788;2024-03-22T06:00:02;102465.53;;;14.50;100.00
25430;BME280;13360;48.152;-1.788;2024-03-22T06:02:27;102477.50;;;14.51;100.00
25430;BME280;13360;48.152;-1.788;2024-03-22T06:04:52;102458.31;;;14.49;100.00
25430;BME280;13360;48.152;-1.788;2024-03-22T06:07:18;102466.09;;;14.47;100.00
25430;BME280;13360;48.152;-1.788;2024-03-22T06:09:43;102462.22;;;14.48;100.00
25430;BME280;13360;48.152;-1.788;2024-03-22T06:12:11;102459.72;;;14.47;100.00
25430;BME280;13360;48.152;-1.788;2024-03-22T06:14:37;102459.72;;;14.47;100.00
25430;BME280;13360;48.152;-1.788;2024-03-22T06:17:03;102462.78;;;14.45;100.00
25430;BME280;13360;48.152;-1.788;2024-03-22T06:19:28;102471.97;;;14.46;100.00
25430;BME280;13360;48.152;-1.788;2024-03-22T06:21:54;102471.66;;;14.47;100.00
25430;BME280;13360;48.152;-1.788;2024-03-22T06:24:19;102466.94;;;14.48;100.00
25430;BME280;13360;48.152;-1.788;2024-03-22T06:26:44;102467.22;;;14.46;100.00
25430;BME280;13360;48.152;-1.788;2024-03-22T06:29:09;102465.56;;;14.45;100.00
25430;BME280;13360;48.152;-1.788;2024-03-22T06:31:34;102466.69;;;14.44;100.00
25430;BME280;13360;48.152;-1.788;2024-03-22T06:34:00;102460.28;;;14.44;100.00
25430;BME280;13360;48.152;-1.788;2024-03-22T06:36:30;102476.13;;;14.43;100.00
25430;BME280;13360;48.152;-1.788;2024-03-22T06:38:56;102485.84;;;14.41;100.00
25430;BME280;13360;48.152;-1.788;2024-03-22T06:41:21;102485.56;;;14.42;100.00
25430;BME280;13360;48.152;-1.788;2024-03-22T06:43:47;102491.13;;;14.42;100.00
25430;BME280;13360;48.152;-1.788;2024-03-22T06:46:12;102503.06;;;14.43;100.00
25430;BME280;13360;48.152;-1.788;2024-03-22T06:48:37;102502.25;;;14.42;100.00
25430;BME280;13360;48.152;-1.788;2024-03-22T06:51:02;102515.59;;;14.40;100.00
25430;BME280;13360;48.152;-1.788;2024-03-22T06:53:28;102510.59;;;14.37;100.00
25430;BME280;13360;48.152;-1.788;2024-03-22T06:55:53;102523.09;;;14.40;100.00
25430;BME280;13360;48.152;-1.788;2024-03-22T06:58:18;102537.81;;;14.40;100.00
25430;BME280;13360;48.152;-1.788;2024-03-22T07:00:44;102538.97;;;14.44;100.00
25430;BME280;13360;48.152;-1.788;2024-03-22T07:03:09;102543.13;;;14.47;100.00
25430;BME280;13360;48.152;-1.788;2024-03-22T07:05:34;102529.50;;;14.45;100.00
25430;BME280;13360;48.152;-1.788;2024-03-22T07:08:00;102534.22;;;14.45;100.00
25430;BME280;13360;48.152;-1.788;2024-03-22T07:10:25;102544.78;;;14.48;100.00
25430;BME280;13360;48.152;-1.788;2024-03-22T07:12:56;102550.06;;;14.49;100.00
25430;BME280;13360;48.152;-1.788;2024-03-22T07:15:22;102542.84;;;14.48;100.00
25430;BME280;13360;48.152;-1.788;2024-03-22T07:17:48;102553.13;;;14.48;100.00
25430;BME280;13360;48.152;-1.788;2024-03-22T07:20:13;102550.63;;;14.46;100.00
25430;BME280;13360;48.152;-1.788;2024-03-22T07:22:38;102556.19;;;14.46;100.00
25430;BME280;13360;48.152;-1.788;2024-03-22T07:25:03;102558.16;;;14.46;100.00
25430;BME280;13360;48.152;-1.788;2024-03-22T07:27:29;102578.44;;;14.46;100.00
25430;BME280;13360;48.152;-1.788;2024-03-22T07:29:56;102587.91;;;14.45;100.00
25430;BME280;13360;48.152;-1.788;2024-03-22T07:32:21;102594.56;;;14.44;100.00
25430;BME280;13360;48.152;-1.788;2024-03-22T07:34:47;102605.69;;;14.44;100.00
25430;BME280;13360;48.152;-1.788;2024-03-22T07:37:12;102607.34;;;14.45;100.00
25430;BME280;13360;48.152;-1.788;2024-03-22T07:39:37;102607.06;;;14.47;100.00
25430;BME280;13360;48.152;-1.788;2024-03-22T07:42:03;102627.38;;;14.47;100.00
25430;BME280;13360;48.152;-1.788;2024-03-22T07:44:28;102627.38;;;14.47;100.00
25430;BME280;13360;48.152;-1.788;2024-03-22T07:46:53;102631.53;;;14.50;100.00
25430;BME280;13360;48.152;-1.788;2024-03-22T07:49:19;102642.66;;;14.50;100.00
25430;BME280;13360;48.152;-1.788;2024-03-22T07:51:45;102634.31;;;14.50;100.00
25430;BME280;13360;48.152;-1.788;2024-03-22T07:54:10;102628.22;;;14.48;100.00
25430;BME280;13360;48.152;-1.788;2024-03-22T07:56:35;102629.59;;;14.45;100.00
25430;BME280;13360;48.152;-1.788;2024-03-22T07:59:00;102639.06;;;14.44;100.00
25430;BME280;13360;48.152;-1.788;2024-03-22T08:01:26;102651.28;;;14.48;100.00
25430;BME280;13360;48.152;-1.788;2024-03-22T08:03:51;102653.50;;;14.51;100.00
25430;BME280;13360;48.152;-1.788;2024-03-22T08:06:16;102661.28;;;14.54;100.00
25430;BME280;13360;48.152;-1.788;2024-03-22T08:08:41;102670.75;;;14.53;100.00
25430;BME280;13360;48.152;-1.788;2024-03-22T08:11:07;102674.06;;;14.55;100.00
25430;BME280;13360;48.152;-1.788;2024-03-22T08:13:32;102678.00;;;14.59;100.00
25430;BME280;13360;48.152;-1.788;2024-03-22T08:15:57;102684.94;;;14.62;100.00
25430;BME280;13360;48.152;-1.788;2024-03-22T08:18:22;102680.78;;;14.64;100.00
25430;BME280;13360;48.152;-1.788;2024-03-22T08:20:48;102681.06;;;14.68;100.00
25430;BME280;13360;48.152;-1.788;2024-03-22T08:23:13;102673.53;;;14.69;100.00
25430;BME280;13360;48.152;-1.788;2024-03-22T08:25:38;102676.88;;;14.71;100.00
25430;BME280;13360;48.152;-1.788;2024-03-22T08:28:03;102673.25;;;14.70;100.00
25430;BME280;13360;48.152;-1.788;2024-03-22T08:30:29;102682.72;;;14.69;100.00
25430;BME280;13360;48.152;-1.788;2024-03-22T08:32:54;102686.34;;;14.70;100.00
25430;BME280;13360;48.152;-1.788;2024-03-22T08:35:19;102698.03;;;14.72;100.00
25430;BME280;13360;48.152;-1.788;2024-03-22T08:37:45;102679.66;;;14.71;100.00
25430;BME280;13360;48.152;-1.788;2024-03-22T08:40:10;102676.88;;;14.71;100.00
25430;BME280;13360;48.152;-1.788;2024-03-22T08:42:36;102693.84;;;14.74;100.00
25430;BME280;13360;48.152;-1.788;2024-03-22T08:45:01;102694.13;;;14.78;100.00
25430;BME280;13360;48.152;-1.788;2024-03-22T08:47:26;102707.50;;;14.81;100.00
25430;BME280;13360;48.152;-1.788;2024-03-22T08:49:52;102698.59;;;14.84;100.00
25430;BME280;13360;48.152;-1.788;2024-03-22T08:52:17;102699.44;;;14.84;100.00
25430;BME280;13360;48.152;-1.788;2024-03-22T08:54:42;102687.19;;;14.85;100.00
25430;BME280;13360;48.152;-1.788;2024-03-22T08:57:07;102664.63;;;14.77;100.00
25430;BME280;13360;48.152;-1.788;2024-03-22T08:59:33;102654.09;;;14.79;100.00
25430;BME280;13360;48.152;-1.788;2024-03-22T09:01:58;102661.59;;;14.83;100.00
25430;BME280;13360;48.152;-1.788;2024-03-22T09:04:24;102658.81;;;14.83;100.00
25430;BME280;13360;48.152;-1.788;2024-03-22T09:06:50;102648.50;;;14.84;100.00
25430;BME280;13360;48.152;-1.788;2024-03-22T09:09:15;102650.19;;;14.85;100.00
25430;BME280;13360;48.152;-1.788;2024-03-22T09:11:40;102644.88;;;14.88;100.00
25430;BME280;13360;48.152;-1.788;2024-03-22T09:14:05;102658.50;;;14.90;100.00
25430;BME280;13360;48.152;-1.788;2024-03-22T09:16:31;102644.59;;;14.90;100.00
25430;BME280;13360;48.152;-1.788;2024-03-22T09:18:56;102620.41;;;14.90;100.00
25430;BME280;13360;48.152;-1.788;2024-03-22T09:21:21;102615.38;;;14.92;100.00
25430;BME280;13360;48.152;-1.788;2024-03-22T09:23:46;102607.31;;;14.96;100.00
25430;BME280;13360;48.152;-1.788;2024-03-22T09:26:12;102601.16;;;14.99;100.00
25430;BME280;13360;48.152;-1.788;2024-03-22T09:28:37;102606.19;;;15.02;100.00
25430;BME280;13360;48.152;-1.788;2024-03-22T09:31:08;102592.56;;;15.01;100.00
25430;BME280;13360;48.152;-1.788;2024-03-22T09:33:34;102569.75;;;14.93;100.00
25430;BME280;13360;48.152;-1.788;2024-03-22T09:35:59;102567.78;;;14.94;100.00
25430;BME280;13360;48.152;-1.788;2024-03-22T09:38:24;102573.91;;;14.96;100.00
25430;BME280;13360;48.152;-1.788;2024-03-22T09:40:50;102569.19;;;14.97;100.00
25430;BME280;13360;48.152;-1.788;2024-03-22T09:43:19;102559.44;;;14.99;100.00
25430;BME280;13360;48.152;-1.788;2024-03-22T09:45:45;102555.28;;;15.02;100.00
25430;BME280;13360;48.152;-1.788;2024-03-22T09:48:10;102560.56;;;15.03;100.00
25430;BME280;13360;48.152;-1.788;2024-03-22T09:50:36;102549.13;;;15.05;100.00
25430;BME280;13360;48.152;-1.788;2024-03-22T09:53:01;102554.41;;;15.11;100.00
25430;BME280;13360;48.152;-1.788;2024-03-22T09:55:28;102546.03;;;15.16;100.00
25430;BME280;13360;48.152;-1.788;2024-03-22T09:57:53;102552.72;;;15.20;100.00
25430;BME280;13360;48.152;-1.788;2024-03-22T10:00:19;102541.56;;;15.20;100.00
25430;BME280;13360;48.152;-1.788;2024-03-22T10:02:47;102513.75;;;15.20;100.00
25430;BME280;13360;48.152;-1.788;2024-03-22T10:05:13;102505.34;;;15.25;100.00
25430;BME280;13360;48.152;-1.788;2024-03-22T10:07:39;102502.53;;;15.31;100.00
25430;BME280;13360;48.152;-1.788;2024-03-22T10:10:04;102507.22;;;15.40;100.00
25430;BME280;13360;48.152;-1.788;2024-03-22T10:12:29;102501.88;;;15.49;100.00
25430;BME280;13360;48.152;-1.788;2024-03-22T10:14:54;102479.31;;;15.50;100.00
25430;BME280;13360;48.152;-1.788;2024-03-22T10:17:21;102474.00;;;15.54;100.00
25430;BME280;13360;48.152;-1.788;2024-03-22T10:19:48;102464.25;;;15.62;100.00
25430;BME280;13360;48.152;-1.788;2024-03-22T10:22:15;102467.16;;;15.80;100.00
25430;BME280;13360;48.152;-1.788;2024-03-22T10:24:41;102479.56;;;15.98;100.00
25430;BME280;13360;48.152;-1.788;2024-03-22T10:27:06;102442.13;;;16.09;100.00
25430;BME280;13360;48.152;-1.788;2024-03-22T10:29:32;102432.59;;;16.15;100.00
25430;BME280;13360;48.152;-1.788;2024-03-22T10:31:57;102409.97;;;16.17;100.00
25430;BME280;13360;48.152;-1.788;2024-03-22T10:34:25;102394.84;;;16.23;100.00
25430;BME280;13360;48.152;-1.788;2024-03-22T10:36:50;102396.88;;;16.41;100.00
25430;BME280;13360;48.152;-1.788;2024-03-22T10:39:18;102382.34;;;16.44;100.00
25430;BME280;13360;48.152;-1.788;2024-03-22T10:41:45;102360.22;;;16.53;100.00
25430;BME280;13360;48.152;-1.788;2024-03-22T10:44:10;102314.25;;;16.51;100.00
25430;BME280;13360;48.152;-1.788;2024-03-22T10:46:35;102300.16;;;16.61;100.00
25430;BME280;13360;48.152;-1.788;2024-03-22T10:49:00;102229.34;;;16.57;100.00
25430;BME280;13360;48.152;-1.788;2024-03-22T10:51:29;102219.16;;;16.71;100.00
25430;BME280;13360;48.152;-1.788;2024-03-22T10:53:55;102191.03;;;16.67;100.00
25430;BME280;13360;48.152;-1.788;2024-03-22T10:56:21;102180.91;;;16.71;100.00
25430;BME280;13360;48.152;-1.788;2024-03-22T10:58:48;102166.25;;;16.80;100.00
25430;BME280;13360;48.152;-1.788;2024-03-22T11:01:24;102168.75;;;16.81;100.00
25430;BME280;13360;48.152;-1.788;2024-03-22T11:03:49;102155.19;;;16.74;100.00
25430;BME280;13360;48.152;-1.788;2024-03-22T11:06:17;102132.25;;;16.59;100.00
25430;BME280;13360;48.152;-1.788;2024-03-22T11:08:43;102124.06;;;16.49;100.00
25430;BME280;13360;48.152;-1.788;2024-03-22T11:11:09;102125.50;;;16.46;100.00
25430;BME280;13360;48.152;-1.788;2024-03-22T11:13:35;102151.44;;;16.46;100.00
25430;BME280;13360;48.152;-1.788;2024-03-22T11:16:00;102172.09;;;16.45;100.00
25430;BME280;13360;48.152;-1.788;2024-03-22T11:18:26;102121.22;;;16.35;100.00
25430;BME280;13360;48.152;-1.788;2024-03-22T11:20:51;102138.75;;;16.35;100.00
25430;BME280;13360;48.152;-1.788;2024-03-22T11:23:16;102180.28;;;16.37;100.00
25430;BME280;13360;48.152;-1.788;2024-03-22T11:25:42;102170.47;;;16.39;100.00
25430;BME280;13360;48.152;-1.788;2024-03-22T11:28:07;102185.47;;;16.43;100.00
25430;BME280;13360;48.152;-1.788;2024-03-22T11:30:32;102227.78;;;16.51;100.00
25430;BME280;13360;48.152;-1.788;2024-03-22T11:33:00;102227.25;;;16.49;100.00
25430;BME280;13360;48.152;-1.788;2024-03-22T11:35:25;102247.31;;;16.51;100.00
25430;BME280;13360;48.152;-1.788;2024-03-22T11:37:51;102129.78;;;16.38;100.00
25430;BME280;13360;48.152;-1.788;2024-03-22T11:40:16;102114.41;;;16.41;100.00
25430;BME280;13360;48.152;-1.788;2024-03-22T11:42:42;102158.19;;;16.40;100.00
25430;BME280;13360;48.152;-1.788;2024-03-22T11:45:09;102207.22;;;16.46;100.00
25430;BME280;13360;48.152;-1.788;2024-03-22T11:47:35;102223.63;;;16.48;100.00
25430;BME280;13360;48.152;-1.788;2024-03-22T11:50:01;102221.69;;;16.49;100.00
25430;BME280;13360;48.152;-1.788;2024-03-22T11:52:26;102242.78;;;16.55;100.00
25430;BME280;13360;48.152;-1.788;2024-03-22T11:54:52;102210.75;;;16.52;100.00
25430;BME280;13360;48.152;-1.788;2024-03-22T11:57:18;102211.56;;;16.53;100.00
25430;BME280;13360;48.152;-1.788;2024-03-22T11:59:43;102197.72;;;16.48;100.00
25430;BME280;13360;48.152;-1.788;2024-03-22T12:02:08;102181.03;;;16.42;100.00
25430;BME280;13360;48.152;-1.788;2024-03-22T12:04:34;102171.47;;;16.49;100.00
25430;BME280;13360;48.152;-1.788;2024-03-22T12:06:59;102172.59;;;16.48;100.00
25430;BME280;13360;48.152;-1.788;2024-03-22T12:09:25;102204.66;;;16.50;100.00
25430;BME280;13360;48.152;-1.788;2024-03-22T12:11:50;102199.97;;;16.45;100.00
25430;BME280;13360;48.152;-1.788;2024-03-22T12:14:15;102151.44;;;16.46;100.00
25430;BME280;13360;48.152;-1.788;2024-03-22T12:16:41;102130.25;;;16.45;100.00
25430;BME280;13360;48.152;-1.788;2024-03-22T12:19:06;102110.75;;;16.45;100.00
25430;BME280;13360;48.152;-1.788;2024-03-22T12:21:32;102078.31;;;16.50;100.00